createdAt,value
2022-07-27T00:01:05.772Z,38.90
2022-07-27T00:03:33.649Z,36.77
2022-07-27T00:06:01.382Z,42.73
2022-07-27T00:08:29.160Z,56.23
2022-07-27T00:10:58.340Z,56.70
2022-07-27T00:13:26.316Z,46.50
2022-07-27T00:15:54.130Z,61.77
2022-07-27T00:18:22.231Z,59.10
2022-07-27T00:20:50.220Z,57.43
2022-07-27T00:23:18.090Z,55.47
2022-07-27T00:25:45.831Z,43.13
2022-07-27T00:28:14.930Z,54.50
2022-07-27T00:30:42.710Z,54.63
2022-07-27T00:33:10.558Z,52.23
2022-07-27T00:35:44.837Z,63.73
2022-07-27T00:38:12.686Z,74.57
2022-07-27T00:40:40.603Z,61.23
2022-07-27T00:43:08.428Z,65.03
2022-07-27T00:45:37.626Z,58.97
2022-07-27T00:48:06.231Z,61.20
2022-07-27T00:50:34.047Z,61.80
2022-07-27T00:53:04.772Z,68.00
2022-07-27T00:55:33.348Z,60.47
2022-07-27T00:58:01.621Z,57.93
2022-07-27T01:00:29.581Z,59.83
2022-07-27T01:02:58.828Z,41.53
2022-07-27T01:05:36.745Z,39.03
2022-07-27T01:08:06.704Z,32.90
2022-07-27T01:10:34.884Z,40.63
2022-07-27T01:13:03.327Z,34.93
2022-07-27T01:15:36.768Z,39.47
2022-07-27T01:18:12.443Z,40.83
2022-07-27T01:20:41.075Z,39.97
2022-07-27T01:23:10.897Z,45.77
2022-07-27T01:25:41.117Z,46.97
2022-07-27T01:28:08.870Z,39.17
2022-07-27T01:30:36.656Z,41.50
2022-07-27T01:33:06.027Z,31.57
2022-07-27T01:35:34.204Z,33.00
2022-07-27T01:38:02.065Z,42.93
2022-07-27T01:40:31.391Z,52.93
2022-07-27T01:42:59.177Z,51.43
2022-07-27T01:45:27.108Z,67.90
2022-07-27T01:47:54.908Z,54.57
2022-07-27T01:50:22.764Z,65.07
2022-07-27T01:52:50.525Z,53.03
2022-07-27T01:55:18.275Z,63.57
2022-07-27T01:57:47.362Z,64.20
2022-07-27T02:00:15.619Z,71.93
2022-07-27T02:02:43.439Z,88.90
2022-07-27T02:05:12.439Z,90.37
2022-07-27T02:07:40.847Z,90.77
2022-07-27T02:10:10.154Z,101.90
2022-07-27T02:12:37.080Z,99.13
2022-07-27T02:15:14.867Z,94.30
2022-07-27T02:17:45.084Z,79.47
2022-07-27T02:20:14.252Z,88.00
2022-07-27T02:22:42.194Z,92.40
2022-07-27T02:25:11.087Z,105.77
2022-07-27T02:27:39.138Z,92.90
2022-07-27T02:30:13.180Z,93.17
2022-07-27T02:32:44.410Z,83.60
2022-07-27T02:35:19.875Z,106.40
2022-07-27T02:37:48.699Z,104.77
2022-07-27T02:40:18.174Z,90.60
2022-07-27T02:42:46.492Z,80.03
2022-07-27T02:45:16.265Z,75.67
2022-07-27T02:47:44.668Z,72.40
2022-07-27T02:50:13.182Z,76.07
2022-07-27T02:52:41.469Z,66.77
2022-07-27T02:55:10.461Z,69.03
2022-07-27T02:57:40.984Z,66.93
2022-07-27T03:00:12.392Z,64.27
2022-07-27T03:02:41.508Z,68.17
2022-07-27T03:05:11.571Z,59.87
2022-07-27T03:07:39.547Z,61.03
2022-07-27T03:10:08.099Z,63.53
2022-07-27T03:12:35.884Z,72.40
2022-07-27T03:15:03.819Z,63.53
2022-07-27T03:17:32.807Z,66.50
2022-07-27T03:20:01.884Z,62.93
2022-07-27T03:22:32.441Z,64.00
2022-07-27T03:25:00.489Z,58.30
2022-07-27T03:27:29.062Z,63.37
2022-07-27T03:29:57.007Z,55.53
2022-07-27T03:32:24.871Z,57.93
2022-07-27T03:34:52.687Z,57.30
2022-07-27T03:37:21.774Z,50.30
2022-07-27T03:39:49.648Z,61.77
2022-07-27T03:42:17.389Z,73.60
2022-07-27T03:44:45.332Z,54.40
2022-07-27T03:47:13.074Z,72.33
2022-07-27T03:49:40.838Z,63.60
2022-07-27T03:52:08.616Z,62.17
2022-07-27T03:54:37.710Z,60.83
2022-07-27T03:57:05.652Z,55.50
2022-07-27T03:59:33.445Z,68.10
2022-07-27T04:02:01.296Z,62.67
2022-07-27T04:04:29.237Z,59.57
2022-07-27T04:06:56.968Z,67.97
2022-07-27T04:09:24.910Z,66.07
2022-07-27T04:11:56.134Z,54.03
2022-07-27T04:14:23.904Z,62.27
2022-07-27T04:16:51.732Z,57.97
2022-07-27T04:19:19.539Z,62.20
2022-07-27T04:21:47.312Z,60.07
2022-07-27T04:24:15.534Z,56.77
2022-07-27T04:26:43.323Z,56.90
2022-07-27T04:29:16.899Z,60.93
2022-07-27T04:31:47.848Z,53.80
2022-07-27T04:34:15.691Z,57.17
2022-07-27T04:36:43.458Z,60.87
2022-07-27T04:39:11.786Z,64.10
2022-07-27T04:41:39.854Z,75.20
2022-07-27T04:44:07.625Z,74.73
2022-07-27T04:46:37.120Z,80.57
2022-07-27T04:49:05.136Z,83.33
2022-07-27T04:51:34.770Z,84.47
2022-07-27T04:54:02.847Z,208.38
2022-07-27T04:56:30.642Z,137.30
2022-07-27T04:58:58.458Z,80.73
2022-07-27T05:01:30.375Z,65.93
2022-07-27T05:04:04.094Z,66.80
2022-07-27T05:06:32.896Z,73.50
2022-07-27T05:09:00.938Z,68.27
2022-07-27T05:11:28.691Z,60.83
2022-07-27T05:13:56.559Z,71.23
2022-07-27T05:16:28.458Z,58.97
2022-07-27T05:18:57.326Z,51.43
2022-07-27T05:21:27.276Z,55.77
2022-07-27T05:23:55.622Z,57.60
2022-07-27T05:26:23.462Z,57.03
2022-07-27T05:28:51.443Z,69.80
2022-07-27T05:31:19.696Z,68.43
2022-07-27T05:33:49.793Z,69.37
2022-07-27T05:36:19.143Z,75.33
2022-07-27T05:38:48.297Z,72.73
2022-07-27T05:41:16.587Z,73.43
2022-07-27T05:43:44.581Z,69.67
2022-07-27T05:46:12.475Z,79.90
2022-07-27T05:48:40.412Z,72.63
2022-07-27T05:51:08.350Z,69.63
2022-07-27T05:53:36.379Z,68.87
2022-07-27T05:56:07.875Z,67.30
2022-07-27T05:58:35.681Z,70.13
2022-07-27T06:01:03.666Z,68.67
2022-07-27T06:03:31.669Z,69.63
2022-07-27T06:06:13.610Z,70.10
2022-07-27T06:08:41.476Z,83.03
2022-07-27T06:11:10.981Z,67.43
2022-07-27T06:13:41.937Z,78.10
2022-07-27T06:16:10.829Z,71.83
2022-07-27T06:18:38.941Z,61.77
2022-07-27T06:21:06.862Z,78.00
2022-07-27T06:23:34.897Z,74.27
2022-07-27T06:26:02.986Z,81.67
2022-07-27T06:28:32.205Z,83.33
2022-07-27T06:31:01.273Z,81.87
2022-07-27T06:33:30.751Z,57.47
2022-07-27T06:36:02.008Z,63.50
2022-07-27T06:38:30.546Z,53.23
2022-07-27T06:40:59.020Z,56.53
2022-07-27T06:43:28.698Z,49.20
2022-07-27T06:45:59.395Z,42.57
2022-07-27T06:48:27.724Z,44.77
2022-07-27T06:50:56.220Z,34.67
2022-07-27T06:53:24.403Z,28.93
2022-07-27T06:55:52.152Z,24.30
2022-07-27T06:58:20.057Z,23.10
2022-07-27T07:00:48.229Z,29.70
2022-07-27T07:03:18.502Z,30.87
2022-07-27T07:05:48.508Z,26.07
2022-07-27T07:08:16.362Z,24.60
2022-07-27T07:10:45.773Z,27.20
2022-07-27T07:13:14.071Z,26.10
2022-07-27T07:15:43.283Z,23.23
2022-07-27T07:18:12.476Z,20.80
2022-07-27T07:20:42.432Z,19.40
2022-07-27T07:23:10.539Z,20.20
2022-07-27T07:25:39.166Z,19.70
2022-07-27T07:28:07.947Z,18.97
2022-07-27T07:30:35.927Z,19.90
2022-07-27T07:33:04.101Z,15.67
2022-07-27T07:35:32.422Z,16.07
2022-07-27T07:38:01.532Z,15.53
2022-07-27T07:40:45.406Z,19.00
2022-07-27T07:43:14.190Z,15.87
2022-07-27T07:45:51.181Z,15.27
2022-07-27T07:48:20.738Z,17.70
2022-07-27T07:50:52.225Z,16.53
2022-07-27T07:53:23.138Z,15.57
2022-07-27T07:55:52.009Z,17.20
2022-07-27T07:58:19.951Z,17.40
2022-07-27T08:00:47.875Z,16.57
2022-07-27T08:03:16.242Z,15.30
2022-07-27T08:05:44.223Z,9.60
2022-07-27T08:08:12.326Z,9.40
2022-07-27T08:10:41.448Z,11.00
2022-07-27T08:13:09.621Z,11.20
2022-07-27T08:15:37.411Z,9.03
2022-07-27T08:18:06.162Z,9.60
2022-07-27T08:20:34.765Z,11.50
2022-07-27T08:23:02.698Z,12.55
2022-07-27T08:25:30.705Z,6.87
2022-07-27T08:28:00.177Z,7.00
2022-07-27T08:30:30.507Z,6.90
2022-07-27T08:33:02.552Z,8.83
2022-07-27T08:35:31.840Z,6.77
2022-07-27T08:38:00.845Z,6.50
2022-07-27T08:40:46.309Z,5.60
2022-07-27T08:43:24.444Z,5.03
2022-07-27T08:45:57.799Z,4.90
2022-07-27T08:48:26.555Z,6.17
2022-07-27T08:50:54.421Z,5.93
2022-07-27T08:53:23.148Z,6.80
2022-07-27T08:55:51.364Z,7.10
2022-07-27T08:58:20.533Z,9.53
2022-07-27T09:00:49.886Z,9.60
2022-07-27T09:03:20.840Z,10.20
2022-07-27T09:05:50.867Z,6.53
2022-07-27T09:08:22.395Z,6.40
2022-07-27T09:10:50.957Z,8.47
2022-07-27T09:13:25.674Z,4.10
2022-07-27T09:16:16.895Z,4.57
2022-07-27T09:18:43.531Z,4.60
2022-07-27T09:21:14.588Z,5.20
2022-07-27T09:23:44.031Z,6.73
2022-07-27T09:26:30.962Z,7.00
2022-07-27T09:29:03.687Z,7.40
2022-07-27T09:31:32.180Z,8.33
2022-07-27T09:34:02.205Z,8.07
2022-07-27T09:36:31.348Z,8.83
2022-07-27T09:39:03.143Z,7.90
2022-07-27T09:41:41.347Z,6.47
2022-07-27T09:44:31.255Z,6.50
2022-07-27T09:46:59.315Z,4.80
2022-07-27T09:49:29.492Z,5.03
2022-07-27T09:52:00.534Z,4.73
2022-07-27T09:54:41.918Z,4.87
2022-07-27T09:57:10.160Z,5.10
2022-07-27T09:59:39.266Z,4.23
2022-07-27T10:02:07.750Z,3.70
2022-07-27T10:04:35.631Z,3.93
2022-07-27T10:07:06.336Z,4.00
2022-07-27T10:09:37.833Z,4.33
2022-07-27T10:12:06.157Z,3.83
2022-07-27T10:14:35.166Z,3.93
2022-07-27T10:17:04.808Z,4.20
2022-07-27T10:19:40.774Z,4.10
2022-07-27T10:22:08.563Z,5.03
2022-07-27T10:24:37.405Z,5.53
2022-07-27T10:27:20.558Z,4.60
2022-07-27T10:29:48.843Z,5.13
2022-07-27T10:32:25.347Z,4.00
2022-07-27T10:34:53.153Z,4.30
2022-07-27T10:37:26.892Z,3.60
2022-07-27T10:40:16.034Z,4.27
2022-07-27T10:42:48.991Z,3.80
2022-07-27T10:45:21.330Z,3.70
2022-07-27T10:47:52.282Z,3.80
2022-07-27T10:50:30.741Z,4.37
2022-07-27T10:53:03.542Z,3.83
2022-07-27T10:55:48.153Z,3.70
2022-07-27T10:58:45.819Z,4.33
2022-07-27T11:01:14.670Z,3.30
2022-07-27T11:03:52.604Z,3.80
2022-07-27T11:06:37.639Z,3.57
2022-07-27T11:12:04.653Z,3.50
2022-07-27T11:14:32.504Z,4.47
2022-07-27T11:19:55.592Z,5.30
2022-07-27T11:23:03.153Z,4.37
2022-07-27T11:25:21.780Z,4.43
2022-07-27T11:27:49.834Z,4.27
2022-07-27T11:30:25.312Z,4.33
2022-07-27T11:32:53.540Z,4.20
2022-07-27T11:35:23.017Z,3.83
2022-07-27T11:38:02.436Z,4.37
2022-07-27T11:43:39.054Z,4.57
2022-07-27T11:46:18.501Z,4.87
2022-07-27T11:49:08.303Z,4.30
2022-07-27T11:51:40.588Z,4.10
2022-07-27T11:54:09.782Z,3.70
2022-07-27T11:56:40.126Z,3.60
2022-07-27T11:59:11.516Z,3.77
2022-07-27T12:01:41.619Z,3.70
2022-07-27T12:04:28.154Z,3.83
2022-07-27T12:07:00.782Z,3.50
2022-07-27T12:09:37.909Z,3.00
2022-07-27T12:12:12.410Z,3.10
2022-07-27T12:14:42.401Z,3.13
2022-07-27T12:17:18.999Z,4.17
2022-07-27T12:19:56.605Z,3.40
2022-07-27T12:22:44.616Z,3.40
2022-07-27T12:25:29.463Z,3.97
2022-07-27T12:28:00.104Z,2.70
2022-07-27T12:30:34.106Z,3.47
2022-07-27T12:33:02.499Z,2.70
2022-07-27T12:35:37.312Z,3.20
2022-07-27T12:38:09.173Z,3.10
2022-07-27T12:40:44.920Z,3.30
2022-07-27T12:43:17.428Z,3.30
2022-07-27T12:45:45.777Z,3.20
2022-07-27T12:48:17.398Z,2.90
2022-07-27T12:50:46.696Z,3.67
2022-07-27T12:53:18.003Z,2.93
2022-07-27T12:55:45.857Z,3.33
2022-07-27T12:58:14.905Z,2.90
2022-07-27T13:00:43.620Z,3.50
2022-07-27T13:03:11.535Z,3.37
2022-07-27T13:05:39.283Z,3.03
2022-07-27T13:08:07.870Z,3.50
2022-07-27T13:10:37.699Z,3.57
2022-07-27T13:13:05.652Z,2.70
2022-07-27T13:15:33.733Z,3.40
2022-07-27T13:18:01.575Z,3.00
2022-07-27T13:20:29.686Z,2.50
2022-07-27T13:22:57.557Z,2.30
2022-07-27T13:25:25.327Z,2.20
2022-07-27T13:27:55.109Z,2.70
2022-07-27T13:30:24.546Z,2.50
2022-07-27T13:32:52.528Z,3.40
2022-07-27T13:35:20.315Z,2.97
2022-07-27T13:37:48.039Z,2.80
2022-07-27T13:40:15.840Z,3.00
2022-07-27T13:42:43.571Z,2.50
2022-07-27T13:45:13.008Z,2.20
2022-07-27T13:47:41.779Z,2.50
2022-07-27T13:50:17.773Z,2.20
2022-07-27T13:52:46.865Z,2.60
2022-07-27T13:55:15.266Z,2.80
2022-07-27T13:57:43.298Z,2.90
2022-07-27T14:00:13.499Z,3.10
2022-07-27T14:02:41.866Z,3.17
2022-07-27T14:05:12.934Z,2.70
2022-07-27T14:07:42.322Z,2.40
2022-07-27T14:10:30.235Z,2.87
2022-07-27T14:13:01.621Z,2.90
2022-07-27T14:15:50.589Z,3.00
2022-07-27T14:18:22.229Z,3.93
2022-07-27T14:20:50.038Z,4.07
2022-07-27T14:23:17.853Z,6.30
2022-07-27T14:25:46.191Z,7.10
2022-07-27T14:28:13.985Z,3.40
2022-07-27T14:30:43.052Z,4.32
2022-07-27T14:33:10.822Z,4.10
2022-07-27T14:35:40.931Z,3.30
2022-07-27T14:38:09.406Z,3.10
2022-07-27T14:40:37.700Z,3.30
2022-07-27T14:43:06.225Z,3.20
2022-07-27T14:45:44.500Z,3.90
2022-07-27T14:48:23.124Z,3.80
2022-07-27T14:51:00.880Z,4.20
2022-07-27T14:53:28.636Z,3.80
2022-07-27T14:55:56.384Z,3.33
2022-07-27T14:58:24.271Z,4.20
2022-07-27T15:00:52.609Z,3.70
2022-07-27T15:03:21.891Z,3.63
2022-07-27T15:05:50.993Z,3.77
2022-07-27T15:08:19.856Z,4.00
2022-07-27T15:10:48.054Z,3.90
2022-07-27T15:13:15.784Z,3.70
2022-07-27T15:15:43.958Z,4.30
2022-07-27T15:18:11.860Z,3.80
2022-07-27T15:20:40.989Z,4.17
2022-07-27T15:23:08.788Z,3.90
2022-07-27T15:25:36.644Z,4.00
2022-07-27T15:28:04.636Z,3.83
2022-07-27T15:30:37.827Z,3.60
2022-07-27T15:33:06.318Z,3.83
2022-07-27T15:35:34.207Z,3.50
2022-07-27T15:38:03.401Z,3.90
2022-07-27T15:40:41.545Z,4.43
2022-07-27T15:43:11.739Z,3.90
2022-07-27T15:45:40.507Z,3.43
2022-07-27T15:48:09.921Z,3.57
2022-07-27T15:50:39.038Z,3.30
2022-07-27T15:53:08.594Z,3.80
2022-07-27T15:55:37.744Z,4.60
2022-07-27T15:58:06.379Z,3.83
2022-07-27T16:00:39.478Z,4.87
2022-07-27T16:03:09.784Z,4.10
2022-07-27T16:05:37.865Z,4.07
2022-07-27T16:08:07.499Z,3.90
2022-07-27T16:10:36.620Z,4.80
2022-07-27T16:13:05.469Z,3.67
2022-07-27T16:15:51.276Z,4.20
2022-07-27T16:18:19.262Z,4.27
2022-07-27T16:20:47.178Z,5.93
2022-07-27T16:23:19.023Z,4.50
2022-07-27T16:26:04.046Z,4.80
2022-07-27T16:28:33.371Z,4.87
2022-07-27T16:31:01.226Z,4.23
2022-07-27T16:33:28.999Z,4.50
2022-07-27T16:35:57.199Z,4.87
2022-07-27T16:38:25.508Z,5.07
2022-07-27T16:40:54.731Z,5.03
2022-07-27T16:43:22.800Z,4.00
2022-07-27T16:45:56.575Z,5.00
2022-07-27T16:48:24.427Z,4.50
2022-07-27T16:50:52.161Z,5.07
2022-07-27T16:53:20.026Z,4.77
2022-07-27T16:55:47.806Z,4.00
2022-07-27T16:58:16.891Z,5.00
2022-07-27T17:00:44.916Z,3.90
2022-07-27T17:03:12.920Z,4.20
2022-07-27T17:05:40.727Z,4.47
2022-07-27T17:08:10.894Z,5.60
2022-07-27T17:10:38.875Z,3.93
2022-07-27T17:13:13.463Z,4.70
2022-07-27T17:15:42.909Z,4.40
2022-07-27T17:18:11.157Z,5.30
2022-07-27T17:20:40.172Z,5.33
2022-07-27T17:23:10.002Z,5.80
2022-07-27T17:25:37.804Z,5.43
2022-07-27T17:28:05.898Z,5.00
2022-07-27T17:30:38.160Z,4.87
2022-07-27T17:33:07.903Z,5.27
2022-07-27T17:35:36.100Z,4.80
2022-07-27T17:38:06.685Z,4.90
2022-07-27T17:40:35.160Z,4.70
2022-07-27T17:43:03.085Z,5.30
2022-07-27T17:45:31.215Z,5.50
2022-07-27T17:47:58.949Z,5.77
2022-07-27T17:50:28.071Z,6.27
2022-07-27T17:52:57.716Z,6.17
2022-07-27T17:55:25.652Z,5.90
2022-07-27T17:57:53.410Z,5.80
2022-07-27T18:00:21.772Z,5.97
2022-07-27T18:02:49.630Z,6.37
2022-07-27T18:05:17.405Z,5.93
2022-07-27T18:07:46.464Z,6.30
2022-07-27T18:10:14.260Z,6.20
2022-07-27T18:12:42.092Z,6.80
2022-07-27T18:15:28.067Z,6.70
2022-07-27T18:17:55.910Z,6.83
2022-07-27T18:20:23.922Z,6.97
2022-07-27T18:22:53.061Z,6.10
2022-07-27T18:25:22.256Z,6.27
2022-07-27T18:27:51.142Z,6.47
2022-07-27T18:30:18.944Z,6.60
2022-07-27T18:32:46.777Z,6.60
2022-07-27T18:35:14.928Z,7.30
2022-07-27T18:37:42.966Z,7.33
2022-07-27T18:40:13.372Z,6.67
2022-07-27T18:42:41.413Z,7.43
2022-07-27T18:45:11.465Z,8.40
2022-07-27T18:47:39.575Z,7.57
2022-07-27T18:50:08.621Z,7.60
2022-07-27T18:52:36.799Z,8.33
2022-07-27T18:55:05.045Z,8.37
2022-07-27T18:57:34.174Z,11.07
2022-07-27T19:00:01.931Z,10.07
2022-07-27T19:02:31.781Z,8.40
2022-07-27T19:05:01.239Z,8.97
2022-07-27T19:07:30.751Z,9.50
2022-07-27T19:10:01.151Z,10.17
2022-07-27T19:12:29.475Z,11.13
2022-07-27T19:14:58.719Z,12.80
2022-07-27T19:17:26.511Z,12.00
2022-07-27T19:19:54.317Z,11.40
2022-07-27T19:22:22.087Z,9.20
2022-07-27T19:24:54.681Z,8.20
2022-07-27T19:27:23.065Z,14.50
2022-07-27T19:29:50.818Z,16.90
2022-07-27T19:32:20.158Z,19.77
2022-07-27T19:34:47.887Z,23.77
2022-07-27T19:37:16.184Z,25.97
2022-07-27T19:39:58.493Z,21.97
2022-07-27T19:42:31.765Z,21.40
2022-07-27T19:44:59.496Z,20.70
2022-07-27T19:47:28.602Z,26.77
2022-07-27T19:49:56.357Z,25.37
2022-07-27T19:52:24.120Z,26.67
2022-07-27T19:54:51.890Z,25.57
2022-07-27T19:57:20.584Z,27.53
2022-07-27T19:59:55.735Z,31.33
2022-07-27T20:02:24.993Z,26.90
2022-07-27T20:04:54.202Z,27.40
2022-07-27T20:07:21.963Z,32.40
2022-07-27T20:09:49.683Z,32.17
2022-07-27T20:12:18.252Z,42.92
2022-07-27T20:14:46.042Z,32.80
2022-07-27T20:17:13.947Z,28.70
2022-07-27T20:19:41.749Z,30.23
2022-07-27T20:22:10.850Z,35.00
2022-07-27T20:24:38.572Z,30.47
2022-07-27T20:27:06.315Z,37.20
2022-07-27T20:29:34.305Z,35.60
2022-07-27T20:32:02.061Z,30.60
2022-07-27T20:34:29.997Z,27.37
2022-07-27T20:36:57.925Z,25.97
2022-07-27T20:39:27.052Z,30.17
2022-07-27T20:41:54.897Z,33.53
2022-07-27T20:44:22.884Z,30.60
2022-07-27T20:46:50.669Z,29.27
2022-07-27T20:49:18.934Z,28.90
2022-07-27T20:51:47.017Z,25.13
2022-07-27T20:54:15.543Z,25.30
2022-07-27T20:56:44.661Z,30.70
2022-07-27T20:59:16.334Z,27.77
2022-07-27T21:01:45.352Z,28.90
2022-07-27T21:04:13.183Z,29.00
2022-07-27T21:06:41.100Z,39.23
2022-07-27T21:09:09.192Z,67.57
2022-07-27T21:11:37.087Z,58.87
2022-07-27T21:14:07.620Z,64.43
2022-07-27T21:16:35.513Z,59.30
2022-07-27T21:19:03.414Z,55.43
2022-07-27T21:21:31.294Z,48.40
2022-07-27T21:24:13.313Z,48.70
2022-07-27T21:26:41.287Z,53.77
2022-07-27T21:29:11.839Z,56.70
2022-07-27T21:31:40.311Z,51.67
2022-07-27T21:34:08.984Z,53.67
2022-07-27T21:36:36.752Z,52.37
2022-07-27T21:39:04.839Z,56.70
2022-07-27T21:41:32.633Z,53.57
2022-07-27T21:44:00.456Z,51.57
2022-07-27T21:46:29.726Z,51.97
2022-07-27T21:48:57.559Z,52.27
2022-07-27T21:51:25.389Z,53.03
2022-07-27T21:53:53.144Z,50.73
2022-07-27T21:56:21.063Z,54.63
2022-07-27T21:58:48.859Z,51.90
2022-07-27T22:01:17.493Z,53.37
2022-07-27T22:03:46.856Z,47.40
2022-07-27T22:06:14.795Z,46.80
2022-07-27T22:08:42.826Z,46.27
2022-07-27T22:11:11.149Z,53.40
2022-07-27T22:13:39.051Z,59.10
2022-07-27T22:16:07.454Z,67.20
2022-07-27T22:18:35.562Z,59.57
2022-07-27T22:21:04.901Z,76.70
2022-07-27T22:23:32.806Z,79.33
2022-07-27T22:26:00.890Z,86.97
2022-07-27T22:28:28.783Z,85.93
2022-07-27T22:31:16.544Z,77.30
2022-07-27T22:33:44.715Z,84.73
2022-07-27T22:36:14.060Z,73.97
2022-07-27T22:38:41.842Z,73.73
2022-07-27T22:41:09.691Z,74.80
2022-07-27T22:43:37.526Z,72.60
2022-07-27T22:46:06.101Z,57.43
2022-07-27T22:48:34.013Z,59.92
2022-07-27T22:51:01.883Z,62.50
2022-07-27T22:53:30.989Z,57.50
2022-07-27T22:55:58.782Z,59.13
2022-07-27T22:58:26.961Z,56.40
2022-07-27T23:00:59.077Z,64.50
2022-07-27T23:03:27.499Z,56.80
2022-07-27T23:05:55.339Z,55.80
2022-07-27T23:08:23.077Z,58.90
2022-07-27T23:10:52.234Z,56.63
2022-07-27T23:13:22.810Z,55.40
2022-07-27T23:15:50.967Z,61.30
2022-07-27T23:18:18.994Z,54.60
2022-07-27T23:20:46.767Z,56.07
2022-07-27T23:23:16.284Z,54.60
2022-07-27T23:25:44.765Z,55.30
2022-07-27T23:28:13.888Z,62.60
2022-07-27T23:30:41.728Z,51.60
2022-07-27T23:33:09.715Z,54.13
2022-07-27T23:35:37.622Z,53.30
2022-07-27T23:38:05.441Z,49.10
2022-07-27T23:40:33.206Z,55.10
2022-07-27T23:43:00.985Z,57.43
2022-07-27T23:45:30.067Z,53.90
2022-07-27T23:47:57.815Z,47.90
2022-07-27T23:50:26.501Z,50.80
2022-07-27T23:52:54.220Z,51.40
2022-07-27T23:55:21.980Z,46.33
2022-07-27T23:57:49.743Z,49.10
